createdAt,value
2019-03-20T00:02:30.389Z,90.70
2019-03-20T00:07:31.689Z,90.70
2019-03-20T00:12:35.092Z,90.80
2019-03-20T00:17:36.601Z,90.80
2019-03-20T00:22:38.105Z,90.90
2019-03-20T00:27:40.162Z,91.00
2019-03-20T00:32:41.848Z,91.20
2019-03-20T00:37:44.045Z,91.30
2019-03-20T00:42:45.918Z,91.50
2019-03-20T00:47:47.547Z,91.60
2019-03-20T00:52:50.278Z,91.70
2019-03-20T00:57:51.673Z,91.90
2019-03-20T01:02:53.191Z,91.80
2019-03-20T01:07:54.571Z,91.90
2019-03-20T01:12:56.261Z,91.80
2019-03-20T01:17:57.711Z,91.80
2019-03-20T01:22:59.705Z,91.70
2019-03-20T01:28:01.204Z,91.70
2019-03-20T01:33:14.395Z,91.70
2019-03-20T01:38:15.826Z,91.60
2019-03-20T01:43:17.321Z,91.60
2019-03-20T01:48:18.778Z,91.50
2019-03-20T01:53:20.571Z,91.60
2019-03-20T01:58:23.232Z,91.50
2019-03-20T02:03:24.600Z,91.40
2019-03-20T02:08:25.974Z,91.40
2019-03-20T02:13:27.337Z,91.40
2019-03-20T02:18:30.707Z,91.50
2019-03-20T02:23:32.097Z,91.40
2019-03-20T02:28:33.541Z,91.40
2019-03-20T02:33:34.949Z,91.40
2019-03-20T02:38:36.412Z,91.30
2019-03-20T02:43:38.656Z,91.40
2019-03-20T02:48:40.653Z,91.40
2019-03-20T02:53:44.039Z,91.40
2019-03-20T02:58:45.380Z,91.30
2019-03-20T03:03:46.705Z,91.40
2019-03-20T03:08:48.070Z,91.40
2019-03-20T03:13:49.402Z,91.40
2019-03-20T03:18:51.009Z,91.40
2019-03-20T03:23:52.699Z,91.40
2019-03-20T03:28:54.280Z,91.40
2019-03-20T03:33:55.785Z,91.50
2019-03-20T03:38:58.289Z,91.10
2019-03-20T03:43:59.783Z,91.50
2019-03-20T03:49:01.130Z,91.60
2019-03-20T03:54:02.841Z,91.60
2019-03-20T03:59:04.654Z,91.60
2019-03-20T04:04:06.929Z,91.70
2019-03-20T04:09:08.233Z,91.70
2019-03-20T04:14:10.556Z,91.70
2019-03-20T04:19:12.053Z,91.70
2019-03-20T04:24:13.637Z,91.80
2019-03-20T04:29:15.221Z,91.60
2019-03-20T04:34:16.990Z,91.80
2019-03-20T04:39:18.307Z,91.80
2019-03-20T04:44:21.632Z,91.80
2019-03-20T04:49:23.817Z,91.90
2019-03-20T04:54:25.283Z,91.90
2019-03-20T04:59:26.623Z,92.00
2019-03-20T05:04:32.130Z,92.00
2019-03-20T05:09:31.428Z,92.20
2019-03-20T05:14:33.028Z,92.10
2019-03-20T05:19:34.364Z,92.20
2019-03-20T05:24:35.733Z,92.30
2019-03-20T05:29:37.172Z,92.50
2019-03-20T05:34:38.748Z,92.60
2019-03-20T05:39:40.146Z,92.80
2019-03-20T05:44:42.975Z,92.90
2019-03-20T05:49:44.472Z,93.00
2019-03-20T05:54:45.984Z,93.20
2019-03-20T05:59:47.686Z,93.10
2019-03-20T06:04:49.370Z,93.20
2019-03-20T06:09:50.750Z,93.20
2019-03-20T06:14:52.439Z,93.40
2019-03-20T06:19:53.925Z,93.50
2019-03-20T06:24:55.740Z,93.40
2019-03-20T06:29:57.139Z,93.50
2019-03-20T06:34:58.477Z,93.50
2019-03-20T06:39:59.876Z,93.50
2019-03-20T06:45:01.741Z,93.60
2019-03-20T06:50:22.111Z,93.50
2019-03-20T06:55:23.506Z,93.60
2019-03-20T07:00:51.429Z,93.50
2019-03-20T07:06:15.298Z,93.60
2019-03-20T07:11:16.325Z,93.50
2019-03-20T07:16:17.669Z,93.50
2019-03-20T07:21:19.242Z,93.50
2019-03-20T07:26:20.667Z,93.50
2019-03-20T07:31:22.044Z,93.50
2019-03-20T07:36:23.368Z,93.50
2019-03-20T07:41:24.772Z,93.50
2019-03-20T07:46:26.354Z,93.50
2019-03-20T07:51:28.140Z,93.50
2019-03-20T07:56:29.607Z,93.40
2019-03-20T08:01:33.018Z,93.30
2019-03-20T08:06:34.512Z,93.20
2019-03-20T08:11:37.521Z,93.10
2019-03-20T08:16:38.782Z,93.00
2019-03-20T08:21:40.314Z,92.90
2019-03-20T08:26:41.772Z,92.80
2019-03-20T08:31:43.358Z,92.80
2019-03-20T08:36:44.772Z,92.70
2019-03-20T08:41:46.152Z,92.60
2019-03-20T08:46:47.732Z,92.40
2019-03-20T08:51:49.046Z,92.20
2019-03-20T08:56:50.912Z,92.00
2019-03-20T09:01:54.468Z,91.80
2019-03-20T09:06:55.848Z,91.70
2019-03-20T09:11:57.150Z,91.60
2019-03-20T09:16:58.631Z,91.50
2019-03-20T09:22:00.022Z,91.40
2019-03-20T09:27:03.908Z,91.30
2019-03-20T09:32:05.303Z,91.20
2019-03-20T09:37:06.655Z,91.00
2019-03-20T09:42:08.011Z,90.70
2019-03-20T09:47:11.268Z,90.50
2019-03-20T09:52:12.657Z,90.40
2019-03-20T09:57:14.029Z,90.30
2019-03-20T10:02:15.421Z,90.30
2019-03-20T10:07:16.736Z,90.10
2019-03-20T10:12:18.217Z,89.90
2019-03-20T10:17:19.531Z,89.30
2019-03-20T10:22:22.459Z,88.80
2019-03-20T10:27:23.897Z,88.50
2019-03-20T10:32:25.186Z,88.10
2019-03-20T10:37:26.842Z,88.30
2019-03-20T10:42:28.307Z,88.50
2019-03-20T10:47:29.711Z,88.60
2019-03-20T10:52:31.121Z,88.40
2019-03-20T10:57:32.673Z,88.30
2019-03-20T11:02:35.912Z,87.80
2019-03-20T11:07:37.234Z,87.40
2019-03-20T11:12:38.647Z,87.20
2019-03-20T11:17:41.068Z,87.10
2019-03-20T11:22:42.602Z,86.30
2019-03-20T11:27:48.131Z,85.90
2019-03-20T11:32:51.574Z,85.40
2019-03-20T11:37:52.972Z,85.30
2019-03-20T11:42:55.525Z,85.40
2019-03-20T11:47:57.155Z,86.10
2019-03-20T11:52:58.818Z,85.80
2019-03-20T11:58:02.212Z,85.30
2019-03-20T12:03:04.508Z,84.70
2019-03-20T12:08:06.118Z,84.00
2019-03-20T12:13:09.092Z,83.40
2019-03-20T12:18:10.775Z,83.50
2019-03-20T12:23:12.319Z,83.60
2019-03-20T12:28:15.348Z,83.80
2019-03-20T12:33:23.028Z,84.10
2019-03-20T12:38:26.012Z,84.90
2019-03-20T12:43:27.710Z,85.20
2019-03-20T12:48:29.305Z,85.70
2019-03-20T12:53:33.746Z,86.00
2019-03-20T12:58:35.214Z,86.40
2019-03-20T13:03:39.808Z,86.30
2019-03-20T13:08:41.211Z,86.30
2019-03-20T13:13:43.224Z,86.00
2019-03-20T13:18:45.391Z,86.20
2019-03-20T13:23:46.869Z,85.90
2019-03-20T13:28:49.031Z,85.60
2019-03-20T13:33:52.406Z,85.50
2019-03-20T13:39:12.378Z,85.90
2019-03-20T13:44:13.849Z,85.20
2019-03-20T13:49:15.181Z,85.10
2019-03-20T13:54:17.293Z,84.50
2019-03-20T13:59:19.194Z,84.50
2019-03-20T14:04:21.472Z,84.20
2019-03-20T14:09:22.889Z,84.00
2019-03-20T14:14:25.493Z,84.10
2019-03-20T14:19:26.943Z,83.60
2019-03-20T14:24:30.148Z,83.50
2019-03-20T14:29:31.563Z,83.40
2019-03-20T14:34:54.556Z,83.30
2019-03-20T14:39:55.849Z,83.50
2019-03-20T14:44:58.971Z,83.20
2019-03-20T14:50:00.499Z,82.80
2019-03-20T14:55:03.998Z,83.00
2019-03-20T15:00:19.826Z,82.60
2019-03-20T15:05:22.744Z,82.30
2019-03-20T15:10:26.469Z,81.90
2019-03-20T15:15:48.492Z,81.60
2019-03-20T15:20:52.320Z,81.50
2019-03-20T15:25:53.902Z,81.60
2019-03-20T15:30:55.693Z,81.70
2019-03-20T15:35:57.147Z,81.70
2019-03-20T15:40:58.677Z,81.50
2019-03-20T15:46:00.118Z,81.30
2019-03-20T15:51:01.740Z,81.20
2019-03-20T15:56:04.909Z,81.20
2019-03-20T16:01:06.724Z,81.30
2019-03-20T16:06:09.722Z,81.20
2019-03-20T16:11:11.654Z,81.00
2019-03-20T16:16:12.976Z,81.20
2019-03-20T16:21:16.302Z,81.60
2019-03-20T16:26:17.723Z,81.90
2019-03-20T16:31:19.134Z,82.00
2019-03-20T16:36:20.885Z,82.40
2019-03-20T16:41:22.213Z,82.70
2019-03-20T16:46:23.652Z,82.90
2019-03-20T16:51:25.678Z,83.90
2019-03-20T16:56:27.300Z,83.50
2019-03-20T17:01:28.717Z,83.90
2019-03-20T17:06:30.021Z,84.10
2019-03-20T17:11:38.385Z,84.30
2019-03-20T17:16:34.834Z,84.40
2019-03-20T17:21:36.433Z,84.80
2019-03-20T17:26:38.049Z,85.00
2019-03-20T17:31:43.334Z,85.30
2019-03-20T17:36:43.559Z,85.50
2019-03-20T17:41:45.029Z,85.80
2019-03-20T17:46:48.994Z,86.20
2019-03-20T17:51:50.409Z,86.50
2019-03-20T17:56:52.565Z,87.00
2019-03-20T18:01:53.924Z,87.20
2019-03-20T18:06:55.400Z,87.30
2019-03-20T18:11:56.949Z,87.40
2019-03-20T18:16:58.397Z,87.80
2019-03-20T18:22:00.086Z,88.00
2019-03-20T18:27:01.585Z,88.30
2019-03-20T18:32:03.512Z,88.30
2019-03-20T18:37:05.448Z,88.50
2019-03-20T18:42:06.844Z,88.90
2019-03-20T18:47:08.332Z,89.30
2019-03-20T18:52:09.651Z,89.60
2019-03-20T18:57:11.145Z,90.00
2019-03-20T19:02:12.499Z,90.10
2019-03-20T19:07:13.895Z,90.30
2019-03-20T19:12:15.513Z,90.40
2019-03-20T19:17:17.158Z,90.60
2019-03-20T19:22:18.731Z,90.70
2019-03-20T19:27:20.131Z,90.80
2019-03-20T19:32:21.516Z,90.90
2019-03-20T19:37:23.365Z,91.00
2019-03-20T19:42:24.871Z,91.10
2019-03-20T19:47:26.333Z,91.20
2019-03-20T19:52:27.742Z,91.30
2019-03-20T19:57:29.228Z,91.30
2019-03-20T20:02:30.841Z,91.40
2019-03-20T20:07:32.401Z,91.50
2019-03-20T20:12:33.716Z,91.50
2019-03-20T20:17:36.333Z,91.60
2019-03-20T20:22:37.990Z,91.60
2019-03-20T20:27:39.474Z,91.70
2019-03-20T20:32:41.092Z,91.80
2019-03-20T20:37:48.730Z,91.80
2019-03-20T20:42:50.096Z,91.70
2019-03-20T20:47:51.768Z,91.70
2019-03-20T20:52:53.843Z,91.70
2019-03-20T20:57:55.857Z,91.80
2019-03-20T21:02:57.583Z,91.80
2019-03-20T21:07:59.324Z,91.80
2019-03-20T21:13:01.008Z,91.80
2019-03-20T21:18:20.338Z,91.80
2019-03-20T21:24:16.037Z,91.90
2019-03-20T21:29:49.075Z,91.90
2019-03-20T21:35:29.428Z,91.90
2019-03-20T21:40:51.047Z,92.00
2019-03-20T21:46:13.399Z,92.00
2019-03-20T21:51:15.425Z,92.00
2019-03-20T21:56:40.329Z,92.00
2019-03-20T22:02:27.238Z,92.10
2019-03-20T22:07:30.783Z,92.20
2019-03-20T22:12:40.594Z,92.30
2019-03-20T22:18:27.485Z,92.40
2019-03-20T22:23:43.465Z,92.40
2019-03-20T22:29:23.465Z,92.40
2019-03-20T22:34:52.722Z,92.50
2019-03-20T22:40:17.459Z,92.60
2019-03-20T22:45:58.109Z,92.70
2019-03-20T22:51:10.926Z,92.80
2019-03-20T22:56:39.336Z,92.90
2019-03-20T23:01:46.497Z,93.30
2019-03-20T23:06:47.903Z,93.00
2019-03-20T23:11:49.539Z,93.10
2019-03-20T23:16:51.506Z,93.10
2019-03-20T23:21:53.100Z,93.10
2019-03-20T23:26:56.767Z,93.20
2019-03-20T23:31:58.247Z,93.20
2019-03-20T23:36:59.777Z,93.30
2019-03-20T23:42:01.338Z,93.20
2019-03-20T23:47:03.079Z,93.20
2019-03-20T23:52:04.529Z,93.20
2019-03-20T23:57:07.542Z,93.30
